createdAt,value
2022-12-31T00:00:47.644Z,19.92
2022-12-31T00:03:15.599Z,19.50
2022-12-31T00:05:42.752Z,21.73
2022-12-31T00:08:10.289Z,24.85
2022-12-31T00:10:41.613Z,26.50
2022-12-31T00:13:10.954Z,30.15
2022-12-31T00:15:39.291Z,29.17
2022-12-31T00:18:07.140Z,29.80
2022-12-31T00:20:34.730Z,28.67
2022-12-31T00:23:01.878Z,29.88
2022-12-31T00:25:28.792Z,63.70
2022-12-31T00:27:56.682Z,69.80
2022-12-31T00:30:23.574Z,54.70
2022-12-31T00:32:50.338Z,42.42
2022-12-31T00:35:17.472Z,37.28
2022-12-31T00:37:44.261Z,23.30
2022-12-31T00:40:11.759Z,18.70
2022-12-31T00:42:38.744Z,16.17
2022-12-31T00:45:06.297Z,13.45
2022-12-31T00:47:33.220Z,12.68
2022-12-31T00:50:00.209Z,15.23
2022-12-31T00:52:27.005Z,15.65
2022-12-31T00:54:53.857Z,18.70
2022-12-31T00:57:20.914Z,22.25
2022-12-31T00:59:47.733Z,28.20
2022-12-31T01:02:15.132Z,36.28
2022-12-31T01:04:42.400Z,34.20
2022-12-31T01:07:09.400Z,36.80
2022-12-31T01:09:36.701Z,36.42
2022-12-31T01:12:03.841Z,29.35
2022-12-31T01:14:32.795Z,27.45
2022-12-31T01:16:59.925Z,20.85
2022-12-31T01:19:29.403Z,19.75
2022-12-31T01:21:57.549Z,14.73
2022-12-31T01:24:24.793Z,12.43
2022-12-31T01:26:51.923Z,13.45
2022-12-31T01:29:18.954Z,10.48
2022-12-31T01:31:46.004Z,13.02
2022-12-31T01:34:13.027Z,12.90
2022-12-31T01:36:40.092Z,11.82
2022-12-31T01:39:09.065Z,12.00
2022-12-31T01:41:44.610Z,10.18
2022-12-31T01:44:15.331Z,11.95
2022-12-31T01:46:44.467Z,11.52
2022-12-31T01:49:18.630Z,12.88
2022-12-31T01:51:49.781Z,12.77
2022-12-31T01:54:20.337Z,12.95
2022-12-31T01:56:49.975Z,12.63
2022-12-31T01:59:18.843Z,12.13
2022-12-31T02:01:48.530Z,12.10
2022-12-31T02:04:16.558Z,13.90
2022-12-31T02:06:52.035Z,13.45
2022-12-31T02:09:19.746Z,15.93
2022-12-31T02:11:46.631Z,9.30
2022-12-31T02:14:21.065Z,8.63
2022-12-31T02:17:06.861Z,10.15
2022-12-31T02:19:36.415Z,11.05
2022-12-31T02:22:26.543Z,12.73
2022-12-31T02:24:59.378Z,13.20
2022-12-31T02:27:45.509Z,12.70
2022-12-31T02:30:19.681Z,12.48
2022-12-31T02:32:58.926Z,11.65
2022-12-31T02:35:41.060Z,9.52
2022-12-31T02:38:33.460Z,10.40
2022-12-31T02:41:01.067Z,9.55
2022-12-31T02:43:28.689Z,10.27
2022-12-31T02:46:07.743Z,18.80
2022-12-31T02:48:37.969Z,13.48
2022-12-31T02:51:33.979Z,11.60
2022-12-31T02:54:08.161Z,11.05
2022-12-31T02:56:53.831Z,9.93
2022-12-31T02:59:50.829Z,8.65
2022-12-31T03:02:21.931Z,9.82
2022-12-31T03:07:23.939Z,16.10
2022-12-31T03:09:51.304Z,14.95
2022-12-31T03:12:41.080Z,15.57
2022-12-31T03:15:20.294Z,13.40
2022-12-31T03:17:51.331Z,16.52
2022-12-31T03:20:37.605Z,15.30
2022-12-31T03:23:08.017Z,14.20
2022-12-31T03:25:41.713Z,10.30
2022-12-31T03:28:23.696Z,9.98
2022-12-31T03:30:53.840Z,9.07
2022-12-31T03:33:21.980Z,8.75
2022-12-31T03:35:50.008Z,9.20
2022-12-31T03:38:18.380Z,14.25
2022-12-31T03:40:48.462Z,15.15
2022-12-31T03:43:15.812Z,10.23
2022-12-31T03:45:42.750Z,9.23
2022-12-31T03:48:10.485Z,7.97
2022-12-31T03:50:37.296Z,8.23
2022-12-31T03:53:04.574Z,14.75
2022-12-31T03:55:31.783Z,21.08
2022-12-31T03:58:00.923Z,19.95
2022-12-31T04:00:28.330Z,19.77
2022-12-31T04:02:58.991Z,16.30
2022-12-31T04:05:25.867Z,15.32
2022-12-31T04:07:52.894Z,14.30
2022-12-31T04:10:20.681Z,15.85
2022-12-31T04:12:47.787Z,14.60
2022-12-31T04:15:21.792Z,15.38
2022-12-31T04:17:49.451Z,14.30
2022-12-31T04:20:16.824Z,29.67
2022-12-31T04:22:44.389Z,39.05
2022-12-31T04:25:11.764Z,32.70
2022-12-31T04:27:43.784Z,30.00
2022-12-31T04:30:12.756Z,25.63
2022-12-31T04:32:39.763Z,22.90
2022-12-31T04:35:07.314Z,22.70
2022-12-31T04:37:34.224Z,20.83
2022-12-31T04:40:05.870Z,21.83
2022-12-31T04:42:34.427Z,24.20
2022-12-31T04:45:01.576Z,21.70
2022-12-31T04:47:28.694Z,21.23
2022-12-31T04:49:55.659Z,19.95
2022-12-31T04:52:23.338Z,17.73
2022-12-31T04:54:50.353Z,16.15
2022-12-31T04:57:17.274Z,17.23
2022-12-31T04:59:44.504Z,21.55
2022-12-31T05:02:11.617Z,24.42
2022-12-31T05:04:38.671Z,21.15
2022-12-31T05:07:05.465Z,15.88
2022-12-31T05:09:32.534Z,14.50
2022-12-31T05:11:59.605Z,16.15
2022-12-31T05:14:26.742Z,19.27
2022-12-31T05:16:53.918Z,22.30
2022-12-31T05:19:21.112Z,23.70
2022-12-31T05:22:08.159Z,24.48
2022-12-31T05:24:35.306Z,22.75
2022-12-31T05:27:02.387Z,25.63
2022-12-31T05:29:29.360Z,24.35
2022-12-31T05:31:56.314Z,25.35
2022-12-31T05:34:23.161Z,31.75
2022-12-31T05:36:50.116Z,28.50
2022-12-31T05:39:17.197Z,30.63
2022-12-31T05:41:44.247Z,26.55
2022-12-31T05:44:11.561Z,26.27
2022-12-31T05:46:38.638Z,23.58
2022-12-31T05:49:05.641Z,20.90
2022-12-31T05:51:35.533Z,19.00
2022-12-31T05:54:34.318Z,21.38
2022-12-31T05:57:03.227Z,22.60
2022-12-31T05:59:31.332Z,21.83
2022-12-31T06:01:58.655Z,24.70
2022-12-31T06:04:25.667Z,24.27
2022-12-31T06:10:31.078Z,31.02
2022-12-31T06:12:58.178Z,25.58
2022-12-31T06:15:25.117Z,26.33
2022-12-31T06:17:59.152Z,26.38
2022-12-31T06:20:26.392Z,25.15
2022-12-31T06:22:53.473Z,25.58
2022-12-31T06:25:20.495Z,27.05
2022-12-31T06:27:47.522Z,27.90
2022-12-31T06:30:14.815Z,31.80
2022-12-31T06:32:42.259Z,31.20
2022-12-31T06:35:09.779Z,32.45
2022-12-31T06:37:36.805Z,41.90
2022-12-31T06:40:04.023Z,41.53
2022-12-31T06:42:32.173Z,39.60
2022-12-31T06:44:59.820Z,36.63
2022-12-31T06:47:26.944Z,27.17
2022-12-31T06:49:54.009Z,28.80
2022-12-31T06:52:21.638Z,37.17
2022-12-31T06:54:48.853Z,33.42
2022-12-31T06:57:16.282Z,31.75
2022-12-31T06:59:44.996Z,26.42
2022-12-31T07:02:33.177Z,19.50
2022-12-31T07:05:27.302Z,21.75
2022-12-31T07:08:35.561Z,15.30
2022-12-31T07:11:25.642Z,17.23
2022-12-31T07:14:22.811Z,28.25
2022-12-31T07:17:22.482Z,37.35
2022-12-31T07:20:14.969Z,37.97
2022-12-31T07:22:42.471Z,29.58
2022-12-31T07:25:19.620Z,33.78
2022-12-31T07:27:51.642Z,38.60
2022-12-31T07:30:45.666Z,36.80
2022-12-31T07:33:19.895Z,33.38
2022-12-31T07:36:03.853Z,33.17
2022-12-31T07:38:50.599Z,31.98
2022-12-31T07:41:34.840Z,32.20
2022-12-31T07:44:33.638Z,41.95
2022-12-31T07:47:03.618Z,47.10
2022-12-31T07:49:31.648Z,43.75
2022-12-31T07:51:59.377Z,44.72
2022-12-31T07:54:26.476Z,48.13
2022-12-31T07:56:54.043Z,81.43
2022-12-31T07:59:50.270Z,61.75
2022-12-31T08:02:25.351Z,75.90
2022-12-31T08:05:10.944Z,74.18
2022-12-31T08:07:40.711Z,82.35
2022-12-31T08:10:30.974Z,85.65
2022-12-31T08:13:12.071Z,87.82
2022-12-31T08:15:40.812Z,89.05
2022-12-31T08:18:08.560Z,85.47
2022-12-31T08:20:46.487Z,82.50
2022-12-31T08:23:32.768Z,84.90
2022-12-31T08:26:21.169Z,83.82
2022-12-31T08:29:29.508Z,86.18
2022-12-31T08:31:59.362Z,82.43
2022-12-31T08:34:52.985Z,81.50
2022-12-31T08:37:37.945Z,66.13
2022-12-31T08:40:51.646Z,64.35
2022-12-31T08:43:30.927Z,60.75
2022-12-31T08:45:59.362Z,61.35
2022-12-31T08:48:41.182Z,63.33
2022-12-31T08:51:26.065Z,56.15
2022-12-31T08:53:55.474Z,49.67
2022-12-31T08:56:48.826Z,66.05
2022-12-31T08:59:41.889Z,90.50
2022-12-31T09:02:48.258Z,82.60
2022-12-31T09:05:31.376Z,72.32
2022-12-31T09:08:40.208Z,53.13
2022-12-31T09:11:22.648Z,39.20
2022-12-31T09:13:56.421Z,31.88
2022-12-31T09:16:49.799Z,29.17
2022-12-31T09:19:16.815Z,25.13
2022-12-31T09:21:45.322Z,25.25
2022-12-31T09:24:14.126Z,21.55
2022-12-31T09:27:30.698Z,21.65
2022-12-31T09:30:04.802Z,23.50
2022-12-31T09:33:01.287Z,25.60
2022-12-31T09:35:47.223Z,27.02
2022-12-31T09:38:22.849Z,28.80
2022-12-31T09:41:08.322Z,29.23
2022-12-31T09:43:53.412Z,27.25
2022-12-31T09:46:50.271Z,28.48
2022-12-31T09:50:07.703Z,28.27
2022-12-31T09:52:47.612Z,32.42
2022-12-31T09:55:30.212Z,34.10
2022-12-31T09:58:18.650Z,33.33
2022-12-31T10:00:57.772Z,31.92
2022-12-31T10:04:06.611Z,22.08
2022-12-31T10:06:36.352Z,24.05
2022-12-31T10:09:30.273Z,18.92
2022-12-31T10:12:25.432Z,21.65
2022-12-31T10:15:20.592Z,12.43
2022-12-31T10:18:06.277Z,5.93
2022-12-31T10:20:48.449Z,7.07
2022-12-31T10:23:21.640Z,10.05
2022-12-31T10:26:04.724Z,8.65
2022-12-31T10:28:49.421Z,6.82
2022-12-31T10:31:37.495Z,6.15
2022-12-31T10:34:16.161Z,6.68
2022-12-31T10:36:52.109Z,6.32
2022-12-31T10:39:54.240Z,7.22
2022-12-31T10:42:59.183Z,6.60
2022-12-31T10:45:47.346Z,10.15
2022-12-31T10:48:31.640Z,9.10
2022-12-31T10:51:18.453Z,8.65
2022-12-31T10:54:04.032Z,6.28
2022-12-31T10:57:09.140Z,6.15
2022-12-31T11:00:04.086Z,7.78
2022-12-31T11:03:00.299Z,8.85
2022-12-31T11:05:53.347Z,6.75
2022-12-31T11:08:48.320Z,6.75
2022-12-31T11:11:30.563Z,6.50
2022-12-31T11:14:27.466Z,7.22
2022-12-31T11:17:37.790Z,4.53
2022-12-31T11:20:41.647Z,6.05
2022-12-31T11:23:36.341Z,6.65
2022-12-31T11:26:26.054Z,6.32
2022-12-31T11:29:18.172Z,4.40
2022-12-31T11:32:04.328Z,6.63
2022-12-31T11:35:10.838Z,6.47
2022-12-31T11:37:53.915Z,5.55
2022-12-31T11:41:07.409Z,5.75
2022-12-31T11:43:38.479Z,4.93
2022-12-31T11:46:25.570Z,5.15
2022-12-31T11:49:27.515Z,6.00
2022-12-31T11:52:25.477Z,6.50
2022-12-31T11:55:18.669Z,5.63
2022-12-31T11:57:51.099Z,5.38
2022-12-31T12:00:20.908Z,5.20
2022-12-31T12:02:54.079Z,5.55
2022-12-31T12:05:24.068Z,6.07
2022-12-31T12:07:52.483Z,6.25
2022-12-31T12:10:31.955Z,7.07
2022-12-31T12:13:17.342Z,7.25
2022-12-31T12:15:58.218Z,4.97
2022-12-31T12:21:17.283Z,7.35
2022-12-31T12:24:23.161Z,5.93
2022-12-31T12:26:50.205Z,7.38
2022-12-31T12:29:21.456Z,5.93
2022-12-31T12:32:14.686Z,5.57
2022-12-31T12:34:49.133Z,6.05
2022-12-31T12:37:25.726Z,5.50
2022-12-31T12:40:04.538Z,7.85
2022-12-31T12:42:31.936Z,7.57
2022-12-31T12:45:15.042Z,8.32
2022-12-31T12:47:43.931Z,10.75
2022-12-31T12:50:17.267Z,11.30
2022-12-31T12:53:10.779Z,13.13
2022-12-31T12:55:38.060Z,10.70
2022-12-31T12:58:18.807Z,8.63
2022-12-31T13:03:27.370Z,8.43
2022-12-31T13:06:22.290Z,8.45
2022-12-31T13:08:55.260Z,11.05
2022-12-31T13:11:46.732Z,10.23
2022-12-31T13:14:37.684Z,7.55
2022-12-31T13:17:30.269Z,10.63
2022-12-31T13:20:15.478Z,9.90
2022-12-31T13:22:52.354Z,8.95
2022-12-31T13:25:32.590Z,12.05
2022-12-31T13:28:09.381Z,14.48
2022-12-31T13:31:06.532Z,15.05
2022-12-31T13:33:42.234Z,11.80
2022-12-31T13:36:15.497Z,11.52
2022-12-31T13:38:54.874Z,14.45
2022-12-31T13:41:43.844Z,20.75
2022-12-31T13:44:13.613Z,28.88
2022-12-31T13:46:49.418Z,22.05
2022-12-31T13:49:22.346Z,22.50
2022-12-31T13:52:01.736Z,25.05
2022-12-31T13:54:39.022Z,28.55
2022-12-31T13:57:17.060Z,32.35
2022-12-31T13:59:52.940Z,23.42
2022-12-31T14:03:03.270Z,15.82
2022-12-31T14:05:53.032Z,18.15
2022-12-31T14:08:20.137Z,20.70
2022-12-31T14:11:31.400Z,17.73
2022-12-31T14:14:21.596Z,21.10
2022-12-31T14:17:45.818Z,22.70
2022-12-31T14:20:23.524Z,19.60
2022-12-31T14:23:32.836Z,19.92
2022-12-31T14:26:18.915Z,16.20
2022-12-31T14:29:02.540Z,13.05
2022-12-31T14:32:06.627Z,18.02
2022-12-31T14:35:04.854Z,26.23
2022-12-31T14:38:02.204Z,28.75
2022-12-31T14:41:01.762Z,25.92
2022-12-31T14:44:05.747Z,34.03
2022-12-31T14:47:06.662Z,42.40
2022-12-31T14:50:04.150Z,39.05
2022-12-31T14:52:34.248Z,37.13
2022-12-31T14:55:03.083Z,41.92
2022-12-31T14:58:16.704Z,37.90
2022-12-31T15:00:34.087Z,46.45
2022-12-31T15:03:04.264Z,32.60
2022-12-31T15:05:37.073Z,34.33
2022-12-31T15:08:19.243Z,34.63
2022-12-31T15:11:01.689Z,33.25
2022-12-31T15:13:53.145Z,38.65
2022-12-31T15:16:53.901Z,43.53
2022-12-31T15:19:32.816Z,54.13
2022-12-31T15:22:07.173Z,44.13
2022-12-31T15:24:34.148Z,56.95
2022-12-31T15:27:06.569Z,94.85
2022-12-31T15:29:44.417Z,84.75
2022-12-31T15:32:28.622Z,83.60
2022-12-31T15:35:30.424Z,82.25
2022-12-31T15:38:35.221Z,83.55
2022-12-31T15:41:36.460Z,73.47
2022-12-31T15:44:20.889Z,78.03
2022-12-31T15:46:55.436Z,91.10
2022-12-31T15:49:24.277Z,113.72
2022-12-31T15:52:04.070Z,116.55
2022-12-31T15:54:42.583Z,125.28
2022-12-31T15:57:19.307Z,128.52
2022-12-31T15:59:47.029Z,100.95
2022-12-31T16:02:43.166Z,101.18
2022-12-31T16:05:24.946Z,100.10
2022-12-31T16:07:56.572Z,102.82
2022-12-31T16:10:32.198Z,112.43
2022-12-31T16:13:00.277Z,92.47
2022-12-31T16:15:30.616Z,83.05
2022-12-31T16:18:06.453Z,86.50
2022-12-31T16:20:34.824Z,93.82
2022-12-31T16:23:03.822Z,70.85
2022-12-31T16:25:33.483Z,69.50
2022-12-31T16:28:03.186Z,31.08
2022-12-31T16:30:36.106Z,28.10
2022-12-31T16:33:06.893Z,33.47
2022-12-31T16:35:39.026Z,33.72
2022-12-31T16:38:17.307Z,35.15
2022-12-31T16:41:02.179Z,50.05
2022-12-31T16:43:39.722Z,54.22
2022-12-31T16:46:27.839Z,61.45
2022-12-31T16:49:00.733Z,69.07
2022-12-31T16:51:31.285Z,77.35
2022-12-31T16:54:02.437Z,57.07
2022-12-31T16:59:23.993Z,129.77
2022-12-31T17:01:52.500Z,110.55
2022-12-31T17:04:21.113Z,100.97
2022-12-31T17:06:48.648Z,97.22
2022-12-31T17:09:23.431Z,107.13
2022-12-31T17:11:58.559Z,118.00
2022-12-31T17:14:28.526Z,104.38
2022-12-31T17:17:03.522Z,132.90
2022-12-31T17:19:36.682Z,157.00
2022-12-31T17:22:40.820Z,147.50
2022-12-31T17:25:25.053Z,158.80
2022-12-31T17:27:54.046Z,152.82
2022-12-31T17:30:23.055Z,136.43
2022-12-31T17:32:51.810Z,112.35
2022-12-31T17:35:27.899Z,113.97
2022-12-31T17:37:54.843Z,99.05
2022-12-31T17:40:51.637Z,91.97
2022-12-31T17:43:21.766Z,82.82
2022-12-31T17:45:52.013Z,68.38
2022-12-31T17:48:20.687Z,59.13
2022-12-31T17:50:52.571Z,53.78
2022-12-31T17:53:20.604Z,47.95
2022-12-31T17:55:49.981Z,53.53
2022-12-31T17:58:36.609Z,42.10
2022-12-31T18:01:08.335Z,36.50
2022-12-31T18:03:35.864Z,28.55
2022-12-31T18:06:03.096Z,47.72
2022-12-31T18:08:30.100Z,58.28
2022-12-31T18:10:57.136Z,83.85
2022-12-31T18:13:26.064Z,116.38
2022-12-31T18:15:53.784Z,119.00
2022-12-31T18:18:26.764Z,115.07
2022-12-31T18:20:59.312Z,67.68
2022-12-31T18:23:33.625Z,62.42
2022-12-31T18:26:00.653Z,34.58
2022-12-31T18:28:27.477Z,34.00
2022-12-31T18:30:54.544Z,42.67
2022-12-31T18:33:23.850Z,45.13
2022-12-31T18:36:08.707Z,47.60
2022-12-31T18:38:36.522Z,44.92
2022-12-31T18:41:04.493Z,36.85
2022-12-31T18:43:31.893Z,42.92
2022-12-31T18:45:59.830Z,34.50
2022-12-31T18:48:27.005Z,36.38
2022-12-31T18:50:54.049Z,39.47
2022-12-31T18:53:23.121Z,51.03
2022-12-31T18:55:59.196Z,53.50
2022-12-31T18:58:26.351Z,61.50
2022-12-31T19:00:53.414Z,78.00
2022-12-31T19:03:23.112Z,111.30
2022-12-31T19:05:53.151Z,129.10
2022-12-31T19:08:21.837Z,124.25
2022-12-31T19:10:50.618Z,123.60
2022-12-31T19:13:19.587Z,90.75
2022-12-31T19:15:52.792Z,77.15
2022-12-31T19:18:19.878Z,69.90
2022-12-31T19:20:47.384Z,73.72
2022-12-31T19:23:20.561Z,140.07
2022-12-31T19:25:49.163Z,176.25
2022-12-31T19:28:17.827Z,167.75
2022-12-31T19:30:45.211Z,131.73
2022-12-31T19:33:12.681Z,107.78
2022-12-31T19:35:40.085Z,113.07
2022-12-31T19:38:16.804Z,115.45
2022-12-31T19:40:43.936Z,73.32
2022-12-31T19:43:16.428Z,60.83
2022-12-31T19:45:44.760Z,53.97
2022-12-31T19:48:14.035Z,61.38
2022-12-31T19:50:50.041Z,78.28
2022-12-31T19:53:20.222Z,163.00
2022-12-31T19:55:48.271Z,123.47
2022-12-31T19:58:22.167Z,70.82
2022-12-31T20:00:55.574Z,51.55
2022-12-31T20:03:24.844Z,50.17
2022-12-31T20:05:51.703Z,42.10
2022-12-31T20:08:20.394Z,28.00
2022-12-31T20:10:47.411Z,25.27
2022-12-31T20:13:14.552Z,24.17
2022-12-31T20:15:47.909Z,23.77
2022-12-31T20:18:17.498Z,22.10
2022-12-31T20:20:55.521Z,23.23
2022-12-31T20:23:23.016Z,27.33
2022-12-31T20:26:00.588Z,34.25
2022-12-31T20:28:27.973Z,41.60
2022-12-31T20:30:55.297Z,40.85
2022-12-31T20:33:22.828Z,40.22
2022-12-31T20:35:50.105Z,36.53
2022-12-31T20:38:17.097Z,34.42
2022-12-31T20:40:46.872Z,35.67
2022-12-31T20:43:17.091Z,46.40
2022-12-31T20:45:45.000Z,55.38
2022-12-31T20:48:12.157Z,53.17
2022-12-31T20:50:39.164Z,57.83
2022-12-31T20:53:07.119Z,68.32
2022-12-31T20:55:37.573Z,65.00
2022-12-31T20:58:06.355Z,62.25
2022-12-31T21:00:33.156Z,55.22
2022-12-31T21:03:10.492Z,32.40
2022-12-31T21:05:53.964Z,28.23
2022-12-31T21:08:21.875Z,34.20
2022-12-31T21:10:49.148Z,46.95
2022-12-31T21:13:18.922Z,66.35
2022-12-31T21:15:55.534Z,69.32
2022-12-31T21:18:23.387Z,94.43
2022-12-31T21:20:52.014Z,88.45
2022-12-31T21:23:20.541Z,68.00
2022-12-31T21:25:50.362Z,82.10
2022-12-31T21:28:17.234Z,85.38
2022-12-31T21:30:44.328Z,68.72
2022-12-31T21:33:11.258Z,66.05
2022-12-31T21:35:45.852Z,69.15
2022-12-31T21:38:15.669Z,71.95
2022-12-31T21:40:44.901Z,73.47
2022-12-31T21:43:13.069Z,83.75
2022-12-31T21:45:41.797Z,76.45
2022-12-31T21:48:21.576Z,81.28
2022-12-31T21:50:50.696Z,93.00
2022-12-31T21:53:30.430Z,90.03
2022-12-31T21:56:09.848Z,76.13
2022-12-31T21:58:41.873Z,77.63
2022-12-31T22:01:35.526Z,85.85
2022-12-31T22:04:03.083Z,96.68
2022-12-31T22:06:31.067Z,128.65
2022-12-31T22:08:58.240Z,116.10
2022-12-31T22:11:27.789Z,90.40
2022-12-31T22:13:55.847Z,132.10
2022-12-31T22:16:23.555Z,146.85
2022-12-31T22:18:50.845Z,163.05
2022-12-31T22:21:20.800Z,137.65
2022-12-31T22:23:50.543Z,126.80
2022-12-31T22:26:20.462Z,129.85
2022-12-31T22:28:48.103Z,116.97
2022-12-31T22:31:24.630Z,109.65
2022-12-31T22:33:52.214Z,93.72
2022-12-31T22:36:21.631Z,94.60
2022-12-31T22:38:50.928Z,92.85
2022-12-31T22:41:20.743Z,96.80
2022-12-31T22:43:51.465Z,110.78
2022-12-31T22:46:24.757Z,114.28
2022-12-31T22:48:53.283Z,104.25
2022-12-31T22:51:20.820Z,70.47
2022-12-31T22:53:47.988Z,55.40
2022-12-31T22:56:20.116Z,58.47
2022-12-31T22:58:47.161Z,47.70
2022-12-31T23:01:23.130Z,47.30
2022-12-31T23:03:51.939Z,42.15
2022-12-31T23:06:28.989Z,50.40
2022-12-31T23:09:15.352Z,43.25
2022-12-31T23:11:43.757Z,51.13
2022-12-31T23:14:36.599Z,55.92
2022-12-31T23:17:30.039Z,63.05
2022-12-31T23:20:18.763Z,55.58
2022-12-31T23:23:05.551Z,52.70
2022-12-31T23:25:34.416Z,39.00
2022-12-31T23:28:01.428Z,35.92
2022-12-31T23:30:28.818Z,35.33
2022-12-31T23:32:56.362Z,36.70
2022-12-31T23:35:23.289Z,39.67
2022-12-31T23:37:50.303Z,38.78
2022-12-31T23:40:21.549Z,39.58
2022-12-31T23:42:49.992Z,49.00
2022-12-31T23:45:17.381Z,48.25
2022-12-31T23:47:44.218Z,56.00
2022-12-31T23:50:11.264Z,62.60
2022-12-31T23:52:38.398Z,48.58
2022-12-31T23:55:05.607Z,34.92
2022-12-31T23:57:32.545Z,34.17
